Decoded Metar for SBSP (SAO PAULO in BRAZIL) (IATA:CGH) | Meteo·Mobile Aviation Weather
aviador You're here:

SBSP Decoded Metar

SAO PAULO in BRAZIL
Report Time2019-05-21 11:00:00
UTC Time2019-05-21 11:35:09
Flight Rules ifr IFR
Wind030° at 05 kt
W.Decomp.*RWY 35: 2.4 kt HW 4.4 kt RCW
Visibility3800 m
Phenomena:Mist
Clouds:Scattered 004 Hf
Broken 005 Hf
Expected CloudBase > 400 ft AGL from Temp-Dew spread
Ceiling500 ft
Temp16°C (ISA +6)
Dew Point15°C (94% RH)
AAT15.8°C
QNH1020 hPa
Density Alt3,369 ft
Elevation2,635 ft
Report Wrong Elevation
Raw Report
METAR SBSP 211100Z 03005KT 3800 BR SCT004 BKN005 16/15 Q1020=

Extra information for SBSP:More info

Metar Taf Metar & Taf Last 4 Metars F.Rules Stats Wind Profile Meteogram Temp Stats Airport Information Weather charts Add Link Nearby VenuesMetar ALERT Operation Metar Decoded Social comments